createdAt,value
2022-12-29T00:05:09.279Z,2.25
2022-12-29T00:15:29.359Z,2.75
2022-12-29T00:25:49.257Z,2.20
2022-12-29T00:35:50.512Z,2.38
2022-12-29T00:45:51.847Z,2.00
2022-12-29T00:55:53.119Z,2.15
2022-12-29T01:05:54.409Z,1.83
2022-12-29T01:15:55.783Z,1.77
2022-12-29T01:25:57.154Z,2.72
2022-12-29T01:35:58.429Z,1.83
2022-12-29T01:45:59.742Z,1.75
2022-12-29T01:56:01.063Z,1.48
2022-12-29T02:06:02.436Z,1.63
2022-12-29T02:16:03.795Z,1.55
2022-12-29T02:26:05.104Z,1.40
2022-12-29T02:36:06.377Z,1.67
2022-12-29T02:46:08.786Z,1.38
2022-12-29T02:56:10.105Z,1.35
2022-12-29T03:06:11.384Z,1.17
2022-12-29T03:16:12.705Z,1.20
2022-12-29T03:26:14.229Z,1.10
2022-12-29T03:36:15.756Z,1.05
2022-12-29T03:46:17.119Z,0.80
2022-12-29T03:56:19.751Z,0.80
2022-12-29T04:06:21.027Z,1.08
2022-12-29T04:16:22.290Z,1.13
2022-12-29T04:26:23.610Z,1.65
2022-12-29T04:36:29.696Z,1.17
2022-12-29T04:46:31.483Z,1.13
2022-12-29T04:56:32.797Z,1.30
2022-12-29T05:06:34.057Z,1.10
2022-12-29T05:16:36.035Z,1.23
2022-12-29T05:37:15.443Z,1.67
2022-12-29T05:47:17.520Z,1.83
2022-12-29T05:57:18.844Z,1.80
2022-12-29T06:07:20.131Z,1.88
2022-12-29T06:17:21.365Z,2.20
2022-12-29T06:27:22.577Z,2.13
2022-12-29T06:37:23.819Z,2.20
2022-12-29T06:47:25.044Z,2.33
2022-12-29T06:57:27.516Z,1.83
2022-12-29T07:07:28.739Z,1.85
2022-12-29T07:17:29.973Z,2.00
2022-12-29T07:27:31.244Z,2.13
2022-12-29T07:37:32.568Z,2.28
2022-12-29T07:47:34.045Z,1.83
2022-12-29T07:57:35.289Z,2.10
2022-12-29T08:07:36.523Z,5.80
2022-12-29T08:17:37.787Z,2.50
2022-12-29T08:27:39.095Z,2.70
2022-12-29T08:37:40.711Z,2.38
2022-12-29T08:47:42.057Z,2.60
2022-12-29T08:57:43.338Z,2.53
2022-12-29T09:07:44.607Z,2.20
2022-12-29T09:17:46.360Z,2.90
2022-12-29T09:27:48.889Z,2.58
2022-12-29T09:37:50.206Z,2.40
2022-12-29T09:47:51.481Z,4.13
2022-12-29T09:57:52.720Z,4.50
2022-12-29T10:07:53.943Z,3.85
2022-12-29T10:17:55.173Z,2.28
2022-12-29T10:27:56.397Z,1.30
2022-12-29T10:37:57.750Z,1.30
2022-12-29T10:47:58.951Z,1.70
2022-12-29T10:58:00.183Z,1.92
2022-12-29T11:08:01.451Z,2.47
2022-12-29T11:18:02.682Z,1.80
2022-12-29T11:28:05.052Z,2.38
2022-12-29T11:38:06.504Z,2.42
2022-12-29T11:48:09.022Z,1.58
2022-12-29T11:58:10.293Z,1.50
2022-12-29T12:08:13.940Z,1.27
2022-12-29T12:18:18.860Z,1.65
2022-12-29T12:28:20.078Z,1.38
2022-12-29T12:38:21.320Z,1.40
2022-12-29T12:48:22.588Z,1.15
2022-12-29T12:58:25.388Z,1.00
2022-12-29T13:08:26.768Z,2.08
2022-12-29T13:18:27.984Z,1.00
2022-12-29T13:28:29.229Z,1.40
2022-12-29T13:38:30.513Z,1.60
2022-12-29T13:48:31.747Z,1.30
2022-12-29T13:58:33.346Z,1.17
2022-12-29T14:08:34.558Z,1.10
2022-12-29T14:18:35.779Z,2.92
2022-12-29T14:28:37.002Z,1.05
2022-12-29T14:38:38.386Z,1.10
2022-12-29T14:48:39.626Z,1.00
2022-12-29T14:58:40.842Z,1.20
2022-12-29T15:08:42.103Z,1.20
2022-12-29T15:18:44.393Z,1.63
2022-12-29T15:28:45.637Z,1.95
2022-12-29T15:38:46.879Z,1.88
2022-12-29T15:48:48.168Z,1.70
2022-12-29T15:58:49.800Z,3.58
2022-12-29T16:08:51.060Z,2.88
2022-12-29T16:18:57.349Z,1.48
2022-12-29T16:28:59.399Z,2.50
2022-12-29T16:39:00.789Z,3.60
2022-12-29T16:49:02.050Z,2.55
2022-12-29T16:59:03.281Z,3.10
2022-12-29T17:09:04.510Z,2.80
2022-12-29T17:19:05.769Z,2.58
2022-12-29T17:29:06.983Z,2.30
2022-12-29T17:39:08.332Z,2.20
2022-12-29T17:49:09.559Z,2.10
2022-12-29T17:59:10.778Z,2.92
2022-12-29T18:09:12.085Z,4.07
2022-12-29T18:19:13.322Z,7.72
2022-12-29T18:29:14.540Z,8.38
2022-12-29T18:39:15.832Z,3.30
2022-12-29T18:49:17.056Z,3.33
2022-12-29T18:59:18.277Z,4.80
2022-12-29T19:09:19.528Z,4.80
2022-12-29T19:19:20.965Z,4.32
2022-12-29T19:29:22.298Z,3.08
2022-12-29T19:39:23.651Z,3.60
2022-12-29T19:49:24.958Z,3.85
2022-12-29T19:59:26.195Z,2.83
2022-12-29T20:09:27.461Z,2.17
2022-12-29T20:19:30.426Z,1.80
2022-12-29T20:29:32.306Z,1.80
2022-12-29T20:39:33.665Z,2.13
2022-12-29T20:49:37.916Z,1.67
2022-12-29T20:59:39.138Z,2.63
2022-12-29T21:09:40.381Z,2.30
2022-12-29T21:19:41.810Z,1.77
2022-12-29T21:29:43.057Z,2.10
2022-12-29T21:39:44.321Z,1.75
2022-12-29T21:49:45.548Z,1.35
2022-12-29T22:00:05.703Z,1.63
2022-12-29T22:10:25.557Z,2.00
2022-12-29T22:20:26.802Z,1.58
2022-12-29T22:30:28.106Z,2.00
2022-12-29T22:40:29.375Z,1.55
2022-12-29T22:50:30.651Z,1.55
2022-12-29T23:00:31.948Z,1.83
2022-12-29T23:10:33.202Z,1.40
2022-12-29T23:20:34.436Z,1.70
2022-12-29T23:30:35.739Z,1.33
2022-12-29T23:40:36.973Z,1.10
2022-12-29T23:50:38.197Z,1.48
